Time;durP1;ratioP1;P1;durP2;ratioP2;P2;SDS_P1;SDS_P2;PMS_P1;PMS_P2;Temp;Humidity;BMP_temperature;BMP_pressure;BME280_temperature;BME280_humidity;BME280_pressure;Samples;Min_cycle;Max_cycle;Signal;HPM_P1;HPM_P2
2022/07/09 00:02:20;;;;;;;4.55;3.90;;;15.50;99.90;;;-144.05;77.30;125687.94;6157449;23;20069;-87
2022/07/09 00:04:46;;;;;;;14.52;4.75;;;15.40;99.90;;;-144.05;77.95;125687.94;6155144;23;20052;-85
2022/07/09 00:10:26;;;;;;;6.97;3.83;;;15.40;99.90;;;-144.05;78.23;125687.94;6131091;23;20006;-83
2022/07/09 00:12:58;;;;;;;5.72;4.45;;;15.40;99.90;;;-144.05;78.15;125687.94;6130457;23;20006;-84
2022/07/09 00:15:28;;;;;;;9.60;5.05;;;15.40;99.90;;;-144.05;78.22;125687.94;6130076;23;20020;-84
2022/07/09 00:17:57;;;;;;;6.10;4.10;;;15.30;99.90;;;-144.05;78.36;125687.94;6155850;23;20009;-84
2022/07/09 00:20:24;;;;;;;7.25;4.00;;;15.30;99.90;;;-144.05;78.44;125687.94;6155730;23;20006;-88
2022/07/09 00:22:49;;;;;;;8.35;3.90;;;15.30;99.90;;;-144.05;78.51;125687.94;6154570;23;20056;-83
2022/07/09 00:25:16;;;;;;;9.82;4.45;;;15.30;99.90;;;-144.05;78.45;125687.94;6154426;23;20384;-87
2022/07/09 00:27:41;;;;;;;7.60;4.00;;;15.30;99.90;;;-144.05;78.85;125687.94;6129136;23;20072;-85
2022/07/09 00:30:16;;;;;;;6.57;4.40;;;15.30;99.90;;;-144.05;78.99;125687.94;6154470;23;20005;-83
2022/07/09 00:33:00;;;;;;;5.60;4.30;;;15.30;99.90;;;-144.05;79.19;125687.94;6156112;23;20049;-86
2022/07/09 00:35:26;;;;;;;5.18;3.58;;;15.20;99.90;;;-144.05;79.02;125687.94;6154563;23;20016;-85
2022/07/09 00:37:52;;;;;;;8.05;4.47;;;15.20;99.90;;;-144.05;79.18;125687.94;6128912;23;20014;-84
2022/07/09 00:40:18;;;;;;;6.97;3.75;;;15.20;99.90;;;-144.05;79.32;125687.94;6156051;23;20027;-86
2022/07/09 00:42:43;;;;;;;6.28;4.65;;;15.10;99.90;;;-144.05;79.32;125687.94;6154297;23;20009;-85
2022/07/09 00:45:10;;;;;;;7.50;3.60;;;15.10;99.90;;;-144.05;79.51;125687.94;6154469;23;20060;-87
2022/07/09 00:47:36;;;;;;;8.07;5.13;;;15.10;99.90;;;-144.05;79.69;125687.94;6154736;23;20471;-87
2022/07/09 00:50:03;;;;;;;7.13;4.47;;;15.00;99.90;;;-144.05;79.76;125687.94;6154468;23;20005;-88
2022/07/09 00:52:32;;;;;;;9.32;4.32;;;15.00;99.90;;;-144.05;79.97;125687.94;6154408;23;20089;-86
2022/07/09 00:55:02;;;;;;;7.05;4.97;;;14.90;99.90;;;-144.05;80.22;125687.94;6154224;23;20036;-87
2022/07/09 00:57:31;;;;;;;8.35;4.70;;;14.90;99.90;;;-144.05;80.44;125687.94;6129650;23;20048;-85
2022/07/09 00:59:59;;;;;;;8.77;4.95;;;14.90;99.90;;;-144.05;80.46;125687.94;6154487;23;20432;-87
2022/07/09 01:02:26;;;;;;;9.95;4.35;;;14.90;99.90;;;-144.05;80.50;125687.94;6154804;23;20013;-88
2022/07/09 01:04:52;;;;;;;6.65;4.30;;;14.90;99.90;;;-144.05;80.53;125687.94;6130266;23;20375;-88
2022/07/09 01:07:19;;;;;;;7.00;4.57;;;14.90;99.90;;;-144.05;80.54;125687.94;6129761;23;20043;-87
2022/07/09 01:09:46;;;;;;;5.25;4.38;;;14.90;99.90;;;-144.05;80.63;125687.94;6129209;23;20010;-87
2022/07/09 01:12:12;;;;;;;9.75;4.43;;;14.80;99.90;;;-144.05;80.85;125687.94;6154399;23;20016;-87
2022/07/09 01:14:38;;;;;;;5.65;3.85;;;14.80;99.90;;;-144.05;80.88;125687.94;6154185;23;20317;-87
2022/07/09 01:17:06;;;;;;;6.18;4.20;;;14.80;99.90;;;-144.05;80.94;125687.94;6154290;23;20009;-87
2022/07/09 01:19:34;;;;;;;6.43;3.67;;;14.70;99.90;;;-144.05;81.14;125687.94;6153835;23;20006;-87
2022/07/09 01:22:02;;;;;;;6.10;4.18;;;14.60;99.90;;;-144.05;81.26;125687.94;6154219;23;20439;-85
2022/07/09 01:24:28;;;;;;;9.20;4.47;;;14.60;99.90;;;-144.05;81.31;125687.94;6155192;23;20001;-88
2022/07/09 01:26:54;;;;;;;7.78;4.38;;;14.50;99.90;;;-144.05;81.53;125687.94;6154165;23;20037;-87
2022/07/09 01:29:21;;;;;;;8.18;4.38;;;14.50;99.90;;;-144.05;81.82;125687.94;6153729;23;20052;-84
2022/07/09 01:31:47;;;;;;;4.88;3.85;;;14.50;99.90;;;-144.05;81.89;125687.94;6154517;23;20013;-88
2022/07/09 01:34:13;;;;;;;6.18;4.38;;;14.50;99.90;;;-144.05;81.86;125687.94;6154547;23;20092;-88
2022/07/09 01:36:39;;;;;;;6.43;4.55;;;14.50;99.90;;;-144.05;82.12;125687.94;6154851;23;20017;-87
2022/07/09 01:39:05;;;;;;;8.95;4.70;;;14.50;99.90;;;-144.05;82.42;125687.94;6155579;23;20142;-89
2022/07/09 01:41:32;;;;;;;9.48;4.97;;;14.50;99.90;;;-144.05;82.65;125687.94;6180762;23;19997;-82
2022/07/09 01:43:58;;;;;;;7.07;4.65;;;14.40;99.90;;;-144.05;82.53;125687.94;6166452;23;20022;-87
2022/07/09 01:46:24;;;;;;;7.75;4.65;;;14.40;99.90;;;-144.05;82.52;125687.94;6155126;23;20005;-88
2022/07/09 01:48:50;;;;;;;6.30;4.47;;;14.40;99.90;;;-144.05;82.69;125687.94;6154355;23;20033;-90
2022/07/09 01:51:16;;;;;;;12.65;5.25;;;14.40;99.90;;;-144.05;82.87;125687.94;6154237;23;20018;-87
2022/07/09 01:53:42;;;;;;;7.43;5.55;;;14.40;99.90;;;-144.05;82.92;125687.94;6154031;23;20294;-86
2022/07/09 01:56:11;;;;;;;9.30;5.03;;;14.40;99.90;;;-144.05;82.94;125687.94;6153956;23;20321;-89
2022/07/09 01:58:38;;;;;;;10.25;5.13;;;14.40;99.90;;;-144.05;83.21;125687.94;6153531;23;20039;-85
2022/07/09 02:01:07;;;;;;;7.93;4.50;;;14.30;99.90;;;-144.05;83.07;125687.94;6153993;23;20010;-88
2022/07/09 02:03:33;;;;;;;8.82;5.07;;;14.30;99.90;;;-144.05;83.13;125687.94;6153392;23;20109;-86
2022/07/09 02:05:59;;;;;;;10.13;5.10;;;14.30;99.90;;;-144.05;83.24;125687.94;6154132;23;20060;-85
2022/07/09 02:08:26;;;;;;;8.27;5.47;;;14.30;99.90;;;-144.05;83.56;125687.94;6155609;23;20018;-86
2022/07/09 02:10:54;;;;;;;7.68;5.30;;;14.30;99.90;;;-144.05;83.74;125687.94;6154714;23;20016;-86
2022/07/09 02:13:21;;;;;;;8.00;5.53;;;14.20;99.90;;;-144.05;83.69;125687.94;6155488;23;20017;-89
2022/07/09 02:15:47;;;;;;;9.85;5.75;;;14.20;99.90;;;-144.05;83.81;125687.94;6155540;23;20044;-87
2022/07/09 02:18:13;;;;;;;6.97;4.70;;;14.20;99.90;;;-144.05;84.06;125687.94;6131054;23;20420;-86
2022/07/09 02:20:39;;;;;;;8.73;5.38;;;14.20;99.90;;;-144.05;84.17;125687.94;6155739;23;20013;-89
2022/07/09 02:23:05;;;;;;;7.85;5.38;;;14.10;99.90;;;-144.05;84.27;125687.94;6155182;23;20016;-86
2022/07/09 02:25:32;;;;;;;8.82;5.07;;;14.10;99.90;;;-144.05;84.32;125687.94;6155010;23;20005;-89
2022/07/09 02:27:57;;;;;;;9.82;5.22;;;14.10;99.90;;;-144.05;84.49;125687.94;6155120;23;20401;-88
2022/07/09 02:30:24;;;;;;;5.95;4.43;;;14.10;99.90;;;-144.05;84.37;125687.94;6155325;23;20013;-86
2022/07/09 02:32:49;;;;;;;7.97;5.32;;;14.10;99.90;;;-144.05;84.43;125687.94;6155128;23;20024;-86
2022/07/09 02:35:15;;;;;;;6.35;4.30;;;14.00;99.90;;;-144.05;84.49;125687.94;6154864;23;20081;-87
2022/07/09 02:37:42;;;;;;;10.02;5.53;;;14.00;99.90;;;-144.05;84.57;125687.94;6155424;23;20009;-86
2022/07/09 02:40:09;;;;;;;7.43;5.00;;;14.00;99.90;;;-144.05;84.81;125687.94;6154359;23;20045;-89
2022/07/09 02:42:36;;;;;;;8.13;6.15;;;14.10;99.90;;;-144.05;84.76;125687.94;6155488;23;20010;-85
2022/07/09 02:45:05;;;;;;;7.95;5.15;;;14.10;99.90;;;-144.05;84.87;125687.94;6158019;23;20005;-86
2022/07/09 02:47:31;;;;;;;7.43;5.40;;;14.10;99.90;;;-144.05;85.06;125687.94;6156503;23;20060;-87
2022/07/09 02:49:57;;;;;;;7.57;5.05;;;14.10;99.90;;;-144.05;84.98;125687.94;6155370;23;20039;-87
2022/07/09 02:52:23;;;;;;;9.38;5.72;;;14.10;99.90;;;-144.05;84.86;125687.94;6155792;23;20380;-88
2022/07/09 02:54:49;;;;;;;10.00;5.60;;;14.00;99.90;;;-144.05;85.03;125687.94;6131105;23;20085;-85
2022/07/09 02:57:15;;;;;;;8.15;5.47;;;14.00;99.90;;;-144.05;85.06;125687.94;6155627;23;20328;-87
2022/07/09 02:59:41;;;;;;;9.95;5.57;;;14.10;99.90;;;-144.05;84.98;125687.94;6155491;23;20015;-87
2022/07/09 03:02:07;;;;;;;7.97;4.95;;;14.10;99.90;;;-144.05;84.94;125687.94;6130100;23;20014;-87
2022/07/09 03:04:33;;;;;;;8.77;6.05;;;14.00;99.90;;;-144.05;84.80;125687.94;6155023;23;20075;-86
2022/07/09 03:06:58;;;;;;;9.75;5.53;;;14.10;99.90;;;-144.05;85.10;125687.94;6155191;23;20001;-85
2022/07/09 03:09:24;;;;;;;7.82;5.60;;;14.20;99.90;;;-144.05;85.06;125687.94;6130831;23;20006;-87
2022/07/09 03:11:50;;;;;;;11.73;5.57;;;14.30;99.90;;;-144.05;84.94;125687.94;6155166;23;20308;-88
2022/07/09 03:14:16;;;;;;;8.38;5.22;;;14.30;99.90;;;-144.05;84.86;125687.94;6154979;23;20009;-88
2022/07/09 03:16:42;;;;;;;7.82;4.72;;;14.40;99.90;;;-144.05;84.82;125687.94;6155098;23;20062;-87
2022/07/09 03:19:08;;;;;;;5.93;4.90;;;14.50;99.90;;;-144.05;84.74;125687.94;6157223;23;20408;-87
2022/07/09 03:21:34;;;;;;;10.15;6.35;;;14.60;99.90;;;-144.05;84.97;125687.94;6155729;23;20037;-87
2022/07/09 03:24:00;;;;;;;7.95;6.03;;;14.70;99.90;;;-144.05;84.81;125687.94;6155976;23;20015;-88
2022/07/09 03:26:26;;;;;;;9.52;5.90;;;14.80;99.90;;;-144.05;84.71;125687.94;6156821;23;20465;-88
2022/07/09 03:28:52;;;;;;;9.48;6.55;;;14.90;99.90;;;-144.05;84.62;125687.94;6156833;23;20076;-87
2022/07/09 03:31:18;;;;;;;10.05;7.25;;;15.00;99.90;;;-144.05;84.57;125687.94;6157075;23;20005;-87
2022/07/09 03:33:44;;;;;;;8.25;6.07;;;15.10;99.90;;;-144.05;84.66;125687.94;6157457;23;20440;-87
2022/07/09 03:36:10;;;;;;;8.93;6.25;;;15.10;99.90;;;-144.05;84.47;125687.94;6157193;23;20048;-85
2022/07/09 03:38:36;;;;;;;7.07;5.70;;;15.20;99.90;;;-144.05;84.39;125687.94;6155815;23;20006;-86
2022/07/09 03:41:02;;;;;;;8.15;5.35;;;15.20;99.90;;;-144.05;84.52;125687.94;6160321;23;20387;-88
2022/07/09 03:43:28;;;;;;;10.48;5.70;;;15.40;99.90;;;-144.05;84.48;125687.94;6170155;23;20025;-82
2022/07/09 03:45:54;;;;;;;11.20;6.50;;;15.30;99.90;;;-144.05;84.38;125687.94;6182092;23;20045;-82
2022/07/09 03:48:20;;;;;;;12.05;5.20;;;15.30;99.90;;;-144.05;84.11;125687.94;6182132;23;20027;-85
2022/07/09 03:50:47;;;;;;;9.65;6.75;;;15.40;99.90;;;-144.05;84.37;125687.94;6138691;23;20018;-86
2022/07/09 03:53:12;;;;;;;17.17;8.43;;;15.40;99.90;;;-144.05;84.67;125687.94;6156636;23;20014;-87
2022/07/09 03:55:38;;;;;;;11.77;6.93;;;15.50;99.90;;;-144.05;84.44;125687.94;6156113;23;20039;-85
2022/07/09 03:58:05;;;;;;;10.73;5.97;;;15.50;99.90;;;-144.05;84.21;125687.94;6156212;23;20062;-86
2022/07/09 04:00:31;;;;;;;8.73;6.13;;;15.60;99.90;;;-144.05;84.17;125687.94;6133277;23;20013;-87
2022/07/09 04:02:57;;;;;;;11.73;7.45;;;15.70;99.90;;;-144.05;84.37;125687.94;6157243;23;20378;-92
2022/07/09 04:05:23;;;;;;;7.90;5.95;;;15.70;99.90;;;-144.05;84.14;125687.94;6132203;23;20021;-84
2022/07/09 04:07:49;;;;;;;13.73;7.20;;;15.70;99.90;;;-144.05;83.72;125687.94;6156714;23;20313;-88
2022/07/09 04:10:15;;;;;;;10.27;6.88;;;15.80;99.90;;;-144.05;83.69;125687.94;6156761;23;20389;-87
2022/07/09 04:12:41;;;;;;;14.02;7.97;;;15.90;99.90;;;-144.05;83.69;125687.94;6131490;23;20013;-87
2022/07/09 04:15:07;;;;;;;11.18;8.05;;;15.90;99.90;;;-144.05;83.42;125687.94;6155867;23;20085;-86
2022/07/09 04:17:34;;;;;;;13.57;7.15;;;15.90;99.90;;;-144.05;83.16;125687.94;6131072;23;20048;-86
2022/07/09 04:20:00;;;;;;;12.75;8.27;;;16.00;99.90;;;-144.05;83.14;125687.94;6131510;23;20083;-88
2022/07/09 04:22:26;;;;;;;11.07;8.38;;;16.00;99.90;;;-144.05;83.01;125687.94;6130925;23;20005;-86
2022/07/09 04:24:52;;;;;;;15.95;7.38;;;16.10;99.90;;;-144.05;82.74;125687.94;6157336;23;20060;-87
2022/07/09 04:27:18;;;;;;;9.88;7.30;;;16.20;99.90;;;-144.05;82.75;125687.94;6131136;23;20005;-89
2022/07/09 04:29:44;;;;;;;8.32;6.93;;;16.30;99.90;;;-144.05;82.39;125687.94;6155890;23;20005;-89
2022/07/09 04:32:10;;;;;;;10.07;7.60;;;16.30;99.90;;;-144.05;82.31;125687.94;6131141;23;20458;-88
2022/07/09 04:34:36;;;;;;;9.73;7.30;;;16.40;99.90;;;-144.05;82.04;125687.94;6155993;23;20006;-89
2022/07/09 04:37:02;;;;;;;12.35;7.80;;;16.40;99.90;;;-144.05;82.08;125687.94;6155981;23;20455;-86
2022/07/09 04:39:28;;;;;;;11.65;7.63;;;16.40;99.90;;;-144.05;81.92;125687.94;6156307;23;20033;-87
2022/07/09 04:41:55;;;;;;;9.15;5.88;;;16.50;99.90;;;-144.05;81.85;125687.94;6156180;23;20006;-88
2022/07/09 04:44:21;;;;;;;9.52;6.13;;;16.50;99.90;;;-144.05;81.73;125687.94;6156468;23;20100;-89
2022/07/09 04:46:47;;;;;;;10.30;6.80;;;16.60;99.90;;;-144.05;81.52;125687.94;6157027;23;20012;-89
2022/07/09 04:49:13;;;;;;;9.60;6.53;;;16.70;99.90;;;-144.05;81.29;125687.94;6131588;23;20085;-91
2022/07/09 04:51:39;;;;;;;15.02;7.30;;;16.70;99.90;;;-144.05;80.79;125687.94;6156113;23;20104;-90
2022/07/09 04:54:04;;;;;;;10.63;5.97;;;16.80;99.90;;;-144.05;80.71;125687.94;6156726;23;20306;-88
2022/07/09 04:56:30;;;;;;;9.57;5.93;;;16.90;99.90;;;-144.05;80.35;125687.94;6132676;23;20013;-89
2022/07/09 04:58:59;;;;;;;10.73;6.18;;;17.10;99.90;;;-144.05;79.54;125687.94;6156155;23;20024;-89
2022/07/09 05:01:25;;;;;;;11.10;4.95;;;17.30;99.90;;;-144.05;78.79;125687.94;6156042;23;20010;-89
2022/07/09 05:03:51;;;;;;;9.15;5.85;;;17.40;99.90;;;-144.05;77.55;125687.94;6156578;23;20064;-87
2022/07/09 05:06:18;;;;;;;10.35;6.32;;;17.50;99.90;;;-144.05;76.44;125687.94;6157141;23;20032;-89
2022/07/09 05:08:45;;;;;;;13.20;6.22;;;17.60;99.90;;;-144.05;75.54;125687.94;6157972;23;20451;-85
2022/07/09 05:11:11;;;;;;;12.00;6.22;;;17.70;99.90;;;-144.05;75.07;125687.94;6158150;23;20084;-87
2022/07/09 05:13:39;;;;;;;10.00;6.47;;;17.70;99.90;;;-144.05;74.87;125687.94;6159096;23;20017;-90
2022/07/09 05:16:07;;;;;;;9.10;5.43;;;17.80;99.90;;;-144.05;74.59;125687.94;6157771;23;20061;-86
2022/07/09 05:18:35;;;;;;;9.35;5.30;;;18.00;99.90;;;-144.05;73.42;125687.94;6133463;23;20292;-89
2022/07/09 05:21:02;;;;;;;9.95;5.18;;;18.20;99.90;;;-144.05;73.13;125687.94;6157329;23;20391;-87
2022/07/09 05:23:28;;;;;;;7.78;5.03;;;18.40;99.90;;;-144.05;72.11;125687.94;6157726;23;20056;-88
2022/07/09 05:25:53;;;;;;;8.32;5.00;;;18.40;99.90;;;-144.05;72.11;125687.94;6158440;23;20013;-87
2022/07/09 05:28:20;;;;;;;8.88;4.82;;;18.40;99.90;;;-144.05;72.15;125687.94;6159274;23;20058;-90
2022/07/09 05:30:46;;;;;;;14.13;5.13;;;18.50;99.90;;;-144.05;72.28;125687.94;6135070;23;20044;-88
2022/07/09 05:33:12;;;;;;;10.98;5.72;;;18.50;99.90;;;-144.05;71.91;125687.94;6134165;23;20013;-88
2022/07/09 05:35:38;;;;;;;8.70;5.28;;;18.60;99.90;;;-144.05;71.76;125687.94;6158594;23;20068;-89
2022/07/09 05:38:04;;;;;;;6.97;4.90;;;18.60;99.90;;;-144.05;71.77;125687.94;6159701;23;20006;-87
2022/07/09 05:40:30;;;;;;;8.77;5.57;;;18.60;99.90;;;-144.05;71.58;125687.94;6157326;23;20015;-89
2022/07/09 05:42:57;;;;;;;9.05;5.35;;;18.60;99.90;;;-144.05;71.02;125687.94;6157365;23;20084;-88
2022/07/09 05:45:23;;;;;;;8.88;5.13;;;18.70;99.90;;;-144.05;70.81;125687.94;6157356;23;20072;-89
2022/07/09 05:47:50;;;;;;;7.43;4.70;;;18.80;99.90;;;-144.05;70.42;125687.94;6156371;23;20097;-87
2022/07/09 05:50:16;;;;;;;8.10;4.47;;;19.00;99.90;;;-144.05;69.67;125687.94;6158820;23;20016;-88
2022/07/09 05:52:42;;;;;;;6.75;4.40;;;19.00;99.90;;;-144.05;68.99;125687.94;6165627;23;19997;-81
2022/07/09 05:55:08;;;;;;;9.77;4.68;;;19.00;99.90;;;-144.05;68.93;125687.94;6156307;23;20017;-82
2022/07/09 05:57:35;;;;;;;6.35;3.92;;;19.00;99.90;;;-144.05;69.08;125687.94;6160241;23;20048;-88
2022/07/09 06:00:03;;;;;;;7.75;4.40;;;18.90;99.90;;;-144.05;69.31;125687.94;6159027;23;20048;-89
2022/07/09 06:02:29;;;;;;;7.38;4.32;;;18.80;99.90;;;-144.05;69.21;125687.94;6160891;23;20021;-89
2022/07/09 06:04:55;;;;;;;8.00;4.70;;;18.90;99.90;;;-144.05;68.97;125687.94;6161764;23;20443;-91
2022/07/09 06:07:21;;;;;;;11.05;4.03;;;18.90;99.90;;;-144.05;68.58;125687.94;6157121;23;20005;-86
2022/07/09 06:09:47;;;;;;;6.05;3.30;;;19.10;99.90;;;-144.05;67.98;125687.94;6155620;23;20391;-89
2022/07/09 06:12:13;;;;;;;7.53;3.05;;;19.30;99.90;;;-144.05;66.43;125687.94;6155135;23;20041;-88
2022/07/09 06:14:39;;;;;;;8.18;3.40;;;19.50;99.90;;;-144.05;65.24;125687.94;6155577;23;20032;-89
2022/07/09 06:17:05;;;;;;;5.35;3.25;;;19.60;99.90;;;-144.05;64.82;125687.94;6131657;23;20005;-87
2022/07/09 06:19:36;;;;;;;5.35;3.03;;;19.60;99.90;;;-144.05;64.85;125687.94;6157078;23;20009;-87
2022/07/09 06:22:04;;;;;;;6.60;2.70;;;19.50;99.90;;;-144.05;65.15;125687.94;6157037;23;20005;-87
2022/07/09 06:24:30;;;;;;;5.88;2.40;;;19.40;99.90;;;-144.05;65.06;125687.94;6157413;23;20009;-86
2022/07/09 06:26:57;;;;;;;4.85;2.55;;;19.50;99.90;;;-144.05;64.08;125687.94;6156846;23;20005;-86
2022/07/09 06:29:23;;;;;;;4.38;2.20;;;19.70;99.90;;;-144.05;63.60;125687.94;6156564;23;20016;-87
2022/07/09 06:31:49;;;;;;;3.83;1.85;;;19.70;99.90;;;-144.05;63.43;125687.94;6157004;23;20023;-85
2022/07/09 06:34:15;;;;;;;3.40;2.42;;;19.60;99.90;;;-144.05;62.08;125687.94;6156762;23;20013;-88
2022/07/09 06:36:44;;;;;;;5.32;2.30;;;19.70;99.90;;;-144.05;61.02;125687.94;6156958;23;20013;-85
2022/07/09 06:42:06;;;;;;;3.80;2.03;;;20.20;99.90;;;-144.05;58.75;125687.94;6158160;23;20462;-85
2022/07/09 06:44:37;;;;;;;4.97;2.13;;;20.20;99.90;;;-144.05;59.02;125687.94;6157843;23;20397;-88
2022/07/09 06:47:05;;;;;;;5.35;1.58;;;20.30;99.90;;;-144.05;58.56;125687.94;6156899;23;20009;-86
2022/07/09 06:49:32;;;;;;;4.88;1.83;;;20.40;99.90;;;-144.05;58.44;125687.94;6156160;23;20013;-85
2022/07/09 06:51:59;;;;;;;1.73;1.40;;;20.60;99.90;;;-144.05;56.16;125687.94;6157182;23;20009;-88
2022/07/09 06:54:25;;;;;;;2.30;1.58;;;20.70;99.90;;;-144.05;56.09;125687.94;6158549;23;20005;-84
2022/07/09 06:56:53;;;;;;;5.32;1.55;;;20.70;99.90;;;-144.05;56.84;125687.94;6157355;23;20376;-87
2022/07/09 06:59:19;;;;;;;4.45;1.70;;;20.70;99.90;;;-144.05;56.49;125687.94;6157167;23;20013;-89
2022/07/09 07:01:45;;;;;;;3.63;1.85;;;20.70;99.90;;;-144.05;56.01;125687.94;6157046;23;20009;-88
2022/07/09 07:04:14;;;;;;;3.58;1.48;;;20.70;99.90;;;-144.05;56.98;125687.94;6157451;23;20092;-85
2022/07/09 07:06:46;;;;;;;2.40;1.33;;;20.70;99.90;;;-144.05;56.02;125687.94;6156819;23;20005;-88
2022/07/09 07:09:12;;;;;;;4.07;1.52;;;20.90;99.90;;;-144.05;55.42;125687.94;6156581;23;20073;-84
2022/07/09 07:11:38;;;;;;;3.28;1.40;;;21.00;99.90;;;-144.05;55.08;125687.94;6156787;23;20454;-86
2022/07/09 07:14:05;;;;;;;11.18;2.17;;;20.90;99.90;;;-144.05;55.27;125687.94;6157045;23;20010;-88
2022/07/09 07:16:31;;;;;;;5.45;1.65;;;20.90;99.90;;;-144.05;55.65;125687.94;6156836;23;20010;-85
2022/07/09 07:18:57;;;;;;;2.85;1.30;;;20.70;99.90;;;-144.05;56.01;125687.94;6156283;23;20389;-87
2022/07/09 07:21:23;;;;;;;3.38;1.48;;;20.70;99.90;;;-144.05;55.79;125687.94;6132109;23;20009;-88
2022/07/09 07:23:49;;;;;;;3.05;1.20;;;20.70;99.90;;;-144.05;54.70;125687.94;6131985;23;20013;-85
2022/07/09 07:26:16;;;;;;;1.90;1.10;;;21.00;99.90;;;-144.05;52.97;125687.94;6155764;23;20013;-86
2022/07/09 07:28:42;;;;;;;3.75;1.40;;;21.70;99.90;;;-144.05;51.85;125687.94;6156293;23;20036;-85
2022/07/09 07:31:08;;;;;;;1.52;1.00;;;22.40;99.90;;;-144.05;49.35;125687.94;6156843;23;20452;-86
2022/07/09 07:33:34;;;;;;;1.25;0.90;;;22.60;99.90;;;-144.05;49.00;125687.94;6156657;23;20017;-87
2022/07/09 07:35:59;;;;;;;1.73;0.90;;;22.80;99.90;;;-144.05;48.45;125687.94;6132573;23;20005;-86
2022/07/09 07:38:27;;;;;;;1.88;0.90;;;22.70;99.90;;;-144.05;48.68;125687.94;6132418;23;20104;-87
2022/07/09 07:40:54;;;;;;;2.97;1.15;;;22.80;99.90;;;-144.05;49.14;125687.94;6157099;23;20048;-87
2022/07/09 07:43:20;;;;;;;2.50;0.88;;;22.70;99.90;;;-144.05;48.85;125687.94;6157155;23;20009;-87
2022/07/09 07:45:46;;;;;;;3.10;0.88;;;22.60;99.90;;;-144.05;48.75;125687.94;6157588;23;20021;-86
2022/07/09 07:48:12;;;;;;;2.13;0.80;;;22.60;99.90;;;-144.05;48.25;125687.94;6132957;23;20025;-88
2022/07/09 07:50:39;;;;;;;1.88;0.65;;;22.50;99.90;;;-144.05;48.70;125687.94;6157439;23;20555;-87
2022/07/09 07:53:09;;;;;;;2.53;1.20;;;22.20;99.90;;;-144.05;49.53;125687.94;6157980;23;20331;-86
2022/07/09 07:55:35;;;;;;;1.92;0.90;;;22.20;99.90;;;-144.05;47.84;125687.94;6157731;23;20068;-89
2022/07/09 07:58:01;;;;;;;1.48;0.85;;;22.50;99.90;;;-144.05;46.54;125687.94;6133478;23;20021;-88
2022/07/09 08:00:27;;;;;;;1.08;0.80;;;22.70;99.90;;;-144.05;47.10;125687.94;6174582;23;20021;-82
2022/07/09 08:02:53;;;;;;;1.35;0.90;;;22.90;99.90;;;-144.05;47.66;125687.94;6173259;23;20039;-85
2022/07/09 08:05:19;;;;;;;1.48;0.90;;;22.80;99.90;;;-144.05;47.51;125687.94;6155783;23;20036;-85
2022/07/09 08:07:45;;;;;;;1.55;0.77;;;22.60;99.90;;;-144.05;47.68;125687.94;6131812;23;20458;-85
2022/07/09 08:10:11;;;;;;;1.20;0.90;;;22.60;99.90;;;-144.05;46.17;125687.94;6156023;23;20089;-86
2022/07/09 08:12:37;;;;;;;3.88;1.10;;;23.30;99.90;;;-144.05;45.07;125687.94;6131633;23;20005;-83
2022/07/09 08:15:04;;;;;;;2.05;1.15;;;24.00;99.90;;;-144.05;43.27;125687.94;6156358;23;20340;-87
2022/07/09 08:17:30;;;;;;;1.17;0.80;;;24.50;99.90;;;-144.05;43.83;125687.94;6156700;23;20013;-86
2022/07/09 08:19:57;;;;;;;1.60;1.10;;;24.80;99.90;;;-144.05;41.73;125687.94;6131683;23;20096;-84
2022/07/09 08:22:23;;;;;;;2.65;0.98;;;25.40;99.90;;;-144.05;40.03;125687.94;6155360;23;20088;-85
2022/07/09 08:24:48;;;;;;;1.42;1.00;;;25.90;99.90;;;-144.05;39.19;125687.94;6155794;23;20005;-87
2022/07/09 08:27:14;;;;;;;1.50;1.10;;;26.50;99.90;;;-144.05;38.58;125687.94;6131804;23;20079;-85
2022/07/09 08:29:42;;;;;;;2.53;1.00;;;26.60;99.90;;;-144.05;38.41;125687.94;6131562;23;20010;-87
2022/07/09 08:32:08;;;;;;;2.72;1.25;;;26.20;99.60;;;-144.05;38.96;125687.94;6156583;23;20017;-84
2022/07/09 08:34:34;;;;;;;2.45;1.13;;;26.10;99.70;;;-144.05;38.62;125687.94;6156515;23;20096;-87
2022/07/09 08:37:00;;;;;;;3.30;1.48;;;26.10;99.90;;;-144.05;39.02;125687.94;6131709;23;20021;-85
2022/07/09 08:39:26;;;;;;;3.47;0.90;;;25.90;99.90;;;-144.05;38.82;125687.94;6130344;23;20012;-85
2022/07/09 08:41:53;;;;;;;0.75;0.57;;;26.10;99.90;;;-144.05;37.58;125687.94;6157423;23;20006;-86
2022/07/09 08:44:24;;;;;;;3.60;1.42;;;26.70;98.90;;;-144.05;36.63;125687.94;6132208;23;20010;-87
2022/07/09 08:46:51;;;;;;;2.25;1.20;;;27.10;96.80;;;-144.05;36.20;125687.94;6155635;23;20009;-88
2022/07/09 08:49:19;;;;;;;1.90;0.90;;;27.10;94.90;;;-144.05;36.51;125687.94;6131055;23;20010;-88
2022/07/09 08:51:49;;;;;;;3.20;0.98;;;27.60;95.20;;;-144.05;36.26;125687.94;6156125;23;20010;-87
2022/07/09 08:54:16;;;;;;;2.67;0.88;;;27.80;94.80;;;-144.05;35.41;125687.94;6156073;23;20033;-86
2022/07/09 08:56:42;;;;;;;1.65;0.65;;;27.30;90.40;;;-144.05;37.30;125687.94;6155282;23;20002;-89
2022/07/09 08:59:08;;;;;;;2.08;0.75;;;26.80;93.80;;;-144.05;37.49;125687.94;6156016;23;20005;-88
2022/07/09 09:01:34;;;;;;;2.60;0.80;;;26.40;94.00;;;-144.05;38.62;125687.94;6140306;23;20036;-81
2022/07/09 09:04:02;;;;;;;2.10;1.00;;;25.70;95.40;;;-144.05;39.69;125687.94;6180672;23;20013;-78
2022/07/09 09:06:28;;;;;;;1.38;0.80;;;25.20;97.40;;;-144.05;39.41;125687.94;6180598;23;20023;-84
2022/07/09 09:08:55;;;;;;;1.23;0.82;;;25.30;98.60;;;-144.05;37.77;125687.94;6142000;23;20409;-86
2022/07/09 09:11:26;;;;;;;1.58;0.98;;;26.10;97.10;;;-144.05;35.97;125687.94;6157769;23;20010;-84
2022/07/09 09:13:53;;;;;;;1.30;0.85;;;26.90;94.30;;;-144.05;34.97;125687.94;6156010;23;20014;-90
2022/07/09 09:16:22;;;;;;;4.35;1.08;;;27.40;91.90;;;-144.05;36.23;125687.94;6130959;23;20010;-84
2022/07/09 09:18:52;;;;;;;1.85;0.73;;;27.00;92.30;;;-144.05;37.16;125687.94;6131463;23;20005;-86
2022/07/09 09:21:26;;;;;;;1.35;0.70;;;26.60;93.40;;;-144.05;37.12;125687.94;6131187;23;20013;-88
2022/07/09 09:23:55;;;;;;;1.52;0.60;;;26.00;92.20;;;-144.05;38.25;125687.94;6156613;23;20096;-85
2022/07/09 09:26:27;;;;;;;2.85;0.90;;;25.70;94.90;;;-144.05;38.04;125687.94;6156784;23;20053;-83
2022/07/09 09:29:01;;;;;;;1.05;0.68;;;25.70;94.20;;;-144.05;37.60;125687.94;6156059;23;20009;-87
2022/07/09 09:31:35;;;;;;;1.60;0.80;;;26.10;94.90;;;-144.05;37.44;125687.94;6156956;23;20049;-85
2022/07/09 09:34:15;;;;;;;3.33;0.88;;;26.20;94.00;;;-144.05;37.21;125687.94;6132075;23;20444;-88
2022/07/09 09:36:54;;;;;;;2.28;1.02;;;26.00;93.50;;;-144.05;37.90;125687.94;6156273;23;20009;-87
2022/07/09 09:39:28;;;;;;;1.88;0.88;;;25.40;94.30;;;-144.05;39.20;125687.94;6155620;23;20013;-88
2022/07/09 09:42:04;;;;;;;1.92;0.85;;;24.80;95.70;;;-144.05;40.59;125687.94;6155891;23;20009;-87
2022/07/09 09:44:37;;;;;;;1.45;0.60;;;24.40;99.10;;;-144.05;40.67;125687.94;6156900;23;20290;-86
2022/07/09 09:47:05;;;;;;;2.50;1.17;;;24.00;99.90;;;-144.05;41.43;125687.94;6157264;23;20084;-87
2022/07/09 09:49:31;;;;;;;2.65;0.88;;;23.70;99.90;;;-144.05;41.22;125687.94;6157239;23;20015;-86
2022/07/09 09:52:08;;;;;;;1.58;1.10;;;23.50;99.90;;;-144.05;41.75;125687.94;6157071;23;20032;-88
2022/07/09 09:54:42;;;;;;;2.63;1.02;;;23.40;99.90;;;-144.05;42.41;125687.94;6156585;23;20037;-86
2022/07/09 09:57:16;;;;;;;2.63;1.08;;;23.20;99.90;;;-144.05;42.59;125687.94;6158756;23;20095;-86
2022/07/09 09:59:45;;;;;;;1.13;0.80;;;23.20;99.90;;;-144.05;42.55;125687.94;6158989;23;20005;-84
2022/07/09 10:02:13;;;;;;;0.75;0.60;;;23.40;99.90;;;-144.05;41.70;125687.94;6158360;23;20016;-88
2022/07/09 10:04:43;;;;;;;1.20;0.70;;;23.80;99.90;;;-144.05;40.38;125687.94;6158624;23;19998;-88